sensor_id;sensor_type;location;lat;lon;timestamp;pressure;altitude;pressure_sealevel;temperature;humidity
32875;BME280;40468;42.128;24.750;2023-05-29T00:01:04;99376.13;;;17.28;87.83
32875;BME280;40468;42.128;24.750;2023-05-29T00:02:39;99373.59;;;17.27;87.84
32875;BME280;40468;42.128;24.750;2023-05-29T00:04:14;99374.56;;;17.26;87.77
32875;BME280;40468;42.128;24.750;2023-05-29T00:05:46;99368.34;;;17.27;87.97
32875;BME280;40468;42.128;24.750;2023-05-29T00:07:19;99371.22;;;17.24;87.72
32875;BME280;40468;42.128;24.750;2023-05-29T00:08:50;99368.72;;;17.22;87.78
32875;BME280;40468;42.128;24.750;2023-05-29T00:10:22;99370.63;;;17.20;87.95
32875;BME280;40468;42.128;24.750;2023-05-29T00:11:54;99375.06;;;17.20;87.94
32875;BME280;40468;42.128;24.750;2023-05-29T00:13:26;99372.28;;;17.21;87.97
32875;BME280;40468;42.128;24.750;2023-05-29T00:14:58;99372.09;;;17.24;87.96
32875;BME280;40468;42.128;24.750;2023-05-29T00:16:31;99375.31;;;17.28;87.82
32875;BME280;40468;42.128;24.750;2023-05-29T00:18:05;99360.09;;;17.20;87.81
32875;BME280;40468;42.128;24.750;2023-05-29T00:19:37;99368.72;;;17.34;87.82
32875;BME280;40468;42.128;24.750;2023-05-29T00:21:08;99375.53;;;17.36;87.58
32875;BME280;40468;42.128;24.750;2023-05-29T00:22:40;99376.22;;;17.38;87.35
32875;BME280;40468;42.128;24.750;2023-05-29T00:24:12;99378.59;;;17.41;87.45
32875;BME280;40468;42.128;24.750;2023-05-29T00:25:44;99375.72;;;17.44;87.50
32875;BME280;40468;42.128;24.750;2023-05-29T00:27:16;99370.34;;;17.46;87.50
32875;BME280;40468;42.128;24.750;2023-05-29T00:28:48;99378.00;;;17.49;87.58
32875;BME280;40468;42.128;24.750;2023-05-29T00:30:19;99371.91;;;17.48;87.48
32875;BME280;40468;42.128;24.750;2023-05-29T00:31:53;99368.19;;;17.51;87.10
32875;BME280;40468;42.128;24.750;2023-05-29T00:33:24;99369.38;;;17.47;87.31
32875;BME280;40468;42.128;24.750;2023-05-29T00:34:56;99361.63;;;17.45;87.25
32875;BME280;40468;42.128;24.750;2023-05-29T00:36:27;99364.50;;;17.42;86.99
32875;BME280;40468;42.128;24.750;2023-05-29T00:38:00;99354.22;;;17.39;87.27
32875;BME280;40468;42.128;24.750;2023-05-29T00:39:31;99362.38;;;17.36;87.36
32875;BME280;40468;42.128;24.750;2023-05-29T00:41:02;99365.22;;;17.33;87.49
32875;BME280;40468;42.128;24.750;2023-05-29T00:42:33;99369.78;;;17.31;87.56
32875;BME280;40468;42.128;24.750;2023-05-29T00:44:05;99371.69;;;17.29;87.80
32875;BME280;40468;42.128;24.750;2023-05-29T00:45:37;99372.44;;;17.31;87.62
32875;BME280;40468;42.128;24.750;2023-05-29T00:47:10;99362.59;;;17.33;87.73
32875;BME280;40468;42.128;24.750;2023-05-29T00:48:42;99358.53;;;17.29;87.67
32875;BME280;40468;42.128;24.750;2023-05-29T00:50:14;99363.56;;;17.32;87.79
32875;BME280;40468;42.128;24.750;2023-05-29T00:51:48;99359.97;;;17.33;87.88
32875;BME280;40468;42.128;24.750;2023-05-29T00:53:19;99362.72;;;17.32;87.81
32875;BME280;40468;42.128;24.750;2023-05-29T00:54:51;99354.69;;;17.33;87.93
32875;BME280;40468;42.128;24.750;2023-05-29T00:56:22;99356.50;;;17.33;87.83
32875;BME280;40468;42.128;24.750;2023-05-29T00:57:55;99351.38;;;17.31;87.76
32875;BME280;40468;42.128;24.750;2023-05-29T00:59:30;99331.06;;;17.22;88.10
32875;BME280;40468;42.128;24.750;2023-05-29T01:01:02;99346.78;;;17.33;87.99
32875;BME280;40468;42.128;24.750;2023-05-29T01:02:36;99357.81;;;17.38;88.06
32875;BME280;40468;42.128;24.750;2023-05-29T01:04:10;99358.53;;;17.40;87.98
32875;BME280;40468;42.128;24.750;2023-05-29T01:05:43;99352.44;;;17.40;88.08
32875;BME280;40468;42.128;24.750;2023-05-29T01:07:14;99352.28;;;17.41;87.82
32875;BME280;40468;42.128;24.750;2023-05-29T01:08:46;99352.19;;;17.43;87.79
32875;BME280;40468;42.128;24.750;2023-05-29T01:10:18;99347.84;;;17.42;87.75
32875;BME280;40468;42.128;24.750;2023-05-29T01:11:55;99352.75;;;17.46;87.68
32875;BME280;40468;42.128;24.750;2023-05-29T01:13:30;99349.31;;;17.46;87.59
32875;BME280;40468;42.128;24.750;2023-05-29T01:15:17;99340.56;;;17.45;87.27
32875;BME280;40468;42.128;24.750;2023-05-29T01:16:55;99351.94;;;17.46;87.53
32875;BME280;40468;42.128;24.750;2023-05-29T01:18:36;99347.59;;;17.45;87.25
32875;BME280;40468;42.128;24.750;2023-05-29T01:20:23;99351.09;;;17.45;87.20
32875;BME280;40468;42.128;24.750;2023-05-29T01:22:02;99352.63;;;17.48;87.42
32875;BME280;40468;42.128;24.750;2023-05-29T01:23:53;99351.94;;;17.46;87.08
32875;BME280;40468;42.128;24.750;2023-05-29T01:25:35;99352.63;;;17.48;87.06
32875;BME280;40468;42.128;24.750;2023-05-29T01:27:15;99351.78;;;17.47;87.00
32875;BME280;40468;42.128;24.750;2023-05-29T01:28:52;99349.31;;;17.46;86.89
32875;BME280;40468;42.128;24.750;2023-05-29T01:30:24;99350.00;;;17.48;86.74
32875;BME280;40468;42.128;24.750;2023-05-29T01:31:56;99351.94;;;17.46;86.58
32875;BME280;40468;42.128;24.750;2023-05-29T01:33:28;99350.38;;;17.43;86.72
32875;BME280;40468;42.128;24.750;2023-05-29T01:34:59;99342.47;;;17.43;86.54
32875;BME280;40468;42.128;24.750;2023-05-29T01:36:31;99342.47;;;17.43;86.48
32875;BME280;40468;42.128;24.750;2023-05-29T01:38:03;99350.38;;;17.43;86.29
32875;BME280;40468;42.128;24.750;2023-05-29T01:39:35;99345.13;;;17.43;86.20
32875;BME280;40468;42.128;24.750;2023-05-29T01:41:07;99340.81;;;17.42;86.05
32875;BME280;40468;42.128;24.750;2023-05-29T01:42:39;99347.50;;;17.46;85.76
32875;BME280;40468;42.128;24.750;2023-05-29T01:44:12;99348.47;;;17.45;85.72
32875;BME280;40468;42.128;24.750;2023-05-29T01:45:44;99349.41;;;17.44;85.79
32875;BME280;40468;42.128;24.750;2023-05-29T01:47:16;99347.75;;;17.43;85.62
32875;BME280;40468;42.128;24.750;2023-05-29T01:48:48;99344.88;;;17.46;85.75
32875;BME280;40468;42.128;24.750;2023-05-29T01:50:21;99327.78;;;17.41;85.47
32875;BME280;40468;42.128;24.750;2023-05-29T01:51:55;99352.41;;;17.51;85.26
32875;BME280;40468;42.128;24.750;2023-05-29T01:53:26;99350.59;;;17.51;85.32
32875;BME280;40468;42.128;24.750;2023-05-29T01:54:57;99345.19;;;17.53;84.95
32875;BME280;40468;42.128;24.750;2023-05-29T01:56:30;99337.56;;;17.50;85.01
32875;BME280;40468;42.128;24.750;2023-05-29T01:58:04;99336.22;;;17.56;84.76
32875;BME280;40468;42.128;24.750;2023-05-29T01:59:37;99346.03;;;17.54;84.81
32875;BME280;40468;42.128;24.750;2023-05-29T02:01:11;99343.28;;;17.55;84.61
32875;BME280;40468;42.128;24.750;2023-05-29T02:02:42;99347.72;;;17.55;84.73
32875;BME280;40468;42.128;24.750;2023-05-29T02:04:14;99351.03;;;17.57;84.44
32875;BME280;40468;42.128;24.750;2023-05-29T02:05:46;99352.97;;;17.55;84.40
32875;BME280;40468;42.128;24.750;2023-05-29T02:07:16;99352.84;;;17.56;84.01
32875;BME280;40468;42.128;24.750;2023-05-29T02:08:48;99351.28;;;17.54;84.06
32875;BME280;40468;42.128;24.750;2023-05-29T02:10:21;99359.09;;;17.55;83.98
32875;BME280;40468;42.128;24.750;2023-05-29T02:11:52;99356.31;;;17.57;83.89
32875;BME280;40468;42.128;24.750;2023-05-29T02:13:26;99359.66;;;17.59;83.84
32875;BME280;40468;42.128;24.750;2023-05-29T02:14:56;99361.31;;;17.60;83.65
32875;BME280;40468;42.128;24.750;2023-05-29T02:16:28;99356.06;;;17.60;83.59
32875;BME280;40468;42.128;24.750;2023-05-29T02:18:19;99360.50;;;17.59;83.24
32875;BME280;40468;42.128;24.750;2023-05-29T02:19:50;99364.22;;;17.57;83.55
32875;BME280;40468;42.128;24.750;2023-05-29T02:21:22;99361.31;;;17.60;83.59
32875;BME280;40468;42.128;24.750;2023-05-29T02:22:53;99363.00;;;17.61;83.24
32875;BME280;40468;42.128;24.750;2023-05-29T02:24:25;99359.56;;;17.60;83.25
32875;BME280;40468;42.128;24.750;2023-05-29T02:25:57;99359.66;;;17.59;83.12
32875;BME280;40468;42.128;24.750;2023-05-29T02:27:29;99358.00;;;17.58;82.96
32875;BME280;40468;42.128;24.750;2023-05-29T02:29:02;99352.72;;;17.58;82.93
32875;BME280;40468;42.128;24.750;2023-05-29T02:30:36;99359.09;;;17.55;82.92
32875;BME280;40468;42.128;24.750;2023-05-29T02:32:07;99357.41;;;17.54;82.82
32875;BME280;40468;42.128;24.750;2023-05-29T02:33:39;99354.91;;;17.52;82.69
32875;BME280;40468;42.128;24.750;2023-05-29T02:35:11;99358.25;;;17.55;82.74
32875;BME280;40468;42.128;24.750;2023-05-29T02:36:44;99360.88;;;17.55;82.63
32875;BME280;40468;42.128;24.750;2023-05-29T02:38:15;99366.84;;;17.57;82.81
32875;BME280;40468;42.128;24.750;2023-05-29T02:39:47;99367.81;;;17.56;82.66
32875;BME280;40468;42.128;24.750;2023-05-29T02:41:19;99369.38;;;17.58;82.68
32875;BME280;40468;42.128;24.750;2023-05-29T02:42:51;99367.69;;;17.57;82.51
32875;BME280;40468;42.128;24.750;2023-05-29T02:44:25;99368.78;;;17.55;82.62
32875;BME280;40468;42.128;24.750;2023-05-29T02:45:56;99362.94;;;17.51;82.64
32875;BME280;40468;42.128;24.750;2023-05-29T02:47:28;99365.69;;;17.49;82.53
32875;BME280;40468;42.128;24.750;2023-05-29T02:48:59;99362.22;;;17.49;82.41
32875;BME280;40468;42.128;24.750;2023-05-29T02:50:31;99357.06;;;17.47;82.55
32875;BME280;40468;42.128;24.750;2023-05-29T02:52:03;99363.41;;;17.45;82.53
32875;BME280;40468;42.128;24.750;2023-05-29T02:53:35;99363.91;;;17.39;82.59
32875;BME280;40468;42.128;24.750;2023-05-29T02:55:06;99361.41;;;17.37;82.56
32875;BME280;40468;42.128;24.750;2023-05-29T02:56:38;99362.59;;;17.33;82.88
32875;BME280;40468;42.128;24.750;2023-05-29T02:58:10;99366.19;;;17.32;82.94
32875;BME280;40468;42.128;24.750;2023-05-29T02:59:44;99366.19;;;17.32;83.41
32875;BME280;40468;42.128;24.750;2023-05-29T03:01:15;99375.91;;;17.09;83.60
32875;BME280;40468;42.128;24.750;2023-05-29T03:02:47;99376.38;;;17.14;83.97
32875;BME280;40468;42.128;24.750;2023-05-29T03:04:19;99371.59;;;17.19;83.83
32875;BME280;40468;42.128;24.750;2023-05-29T03:05:50;99374.94;;;17.21;83.95
32875;BME280;40468;42.128;24.750;2023-05-29T03:07:22;99381.88;;;17.22;83.68
32875;BME280;40468;42.128;24.750;2023-05-29T03:08:52;99374.25;;;17.19;83.99
32875;BME280;40468;42.128;24.750;2023-05-29T03:10:24;99374.25;;;17.19;83.85
32875;BME280;40468;42.128;24.750;2023-05-29T03:11:56;99372.28;;;17.21;84.04
32875;BME280;40468;42.128;24.750;2023-05-29T03:13:28;99379.97;;;17.24;83.91
32875;BME280;40468;42.128;24.750;2023-05-29T03:15:01;99378.75;;;17.28;84.08
32875;BME280;40468;42.128;24.750;2023-05-29T03:16:33;99383.69;;;17.11;84.12
32875;BME280;40468;42.128;24.750;2023-05-29T03:18:04;99385.94;;;17.15;84.49
32875;BME280;40468;42.128;24.750;2023-05-29T03:19:36;99376.88;;;17.19;84.27
32875;BME280;40468;42.128;24.750;2023-05-29T03:21:09;99390.03;;;17.19;84.28
32875;BME280;40468;42.128;24.750;2023-05-29T03:22:40;99377.69;;;17.20;84.20
32875;BME280;40468;42.128;24.750;2023-05-29T03:24:12;99390.84;;;17.20;84.01
32875;BME280;40468;42.128;24.750;2023-05-29T03:25:44;99388.47;;;17.17;84.28
32875;BME280;40468;42.128;24.750;2023-05-29T03:27:16;99386.66;;;17.17;84.18
32875;BME280;40468;42.128;24.750;2023-05-29T03:28:48;99383.44;;;17.14;84.21
32875;BME280;40468;42.128;24.750;2023-05-29T03:30:21;99391.94;;;17.17;84.28
32875;BME280;40468;42.128;24.750;2023-05-29T03:31:52;99386.66;;;17.17;84.70
32875;BME280;40468;42.128;24.750;2023-05-29T03:33:24;99391.09;;;17.17;84.33
32875;BME280;40468;42.128;24.750;2023-05-29T03:34:56;99386.81;;;17.16;84.46
32875;BME280;40468;42.128;24.750;2023-05-29T03:36:28;99389.53;;;17.14;84.47
32875;BME280;40468;42.128;24.750;2023-05-29T03:38:00;99393.16;;;17.13;84.67
32875;BME280;40468;42.128;24.750;2023-05-29T03:39:31;99393.97;;;17.14;84.73
32875;BME280;40468;42.128;24.750;2023-05-29T03:41:03;99392.31;;;17.13;84.90
32875;BME280;40468;42.128;24.750;2023-05-29T03:42:35;99394.94;;;17.13;84.94
32875;BME280;40468;42.128;24.750;2023-05-29T03:44:07;99395.63;;;17.15;85.23
32875;BME280;40468;42.128;24.750;2023-05-29T03:45:40;99397.19;;;17.17;85.04
32875;BME280;40468;42.128;24.750;2023-05-29T03:47:12;99401.63;;;17.17;85.08
32875;BME280;40468;42.128;24.750;2023-05-29T03:48:43;99399.72;;;17.19;85.26
32875;BME280;40468;42.128;24.750;2023-05-29T03:50:15;99404.84;;;17.20;85.17
32875;BME280;40468;42.128;24.750;2023-05-29T03:51:47;99393.50;;;17.20;85.26
32875;BME280;40468;42.128;24.750;2023-05-29T03:53:19;99390.84;;;17.20;85.47
32875;BME280;40468;42.128;24.750;2023-05-29T03:54:51;99392.66;;;17.19;85.60
32875;BME280;40468;42.128;24.750;2023-05-29T03:56:23;99401.25;;;17.21;85.71
32875;BME280;40468;42.128;24.750;2023-05-29T03:57:55;99399.59;;;17.20;85.57
32875;BME280;40468;42.128;24.750;2023-05-29T03:59:27;99395.16;;;17.21;85.87
32875;BME280;40468;42.128;24.750;2023-05-29T04:01:00;99402.81;;;17.24;85.86
32875;BME280;40468;42.128;24.750;2023-05-29T04:02:32;99402.09;;;17.22;85.92
32875;BME280;40468;42.128;24.750;2023-05-29T04:04:04;99403.53;;;17.26;85.75
32875;BME280;40468;42.128;24.750;2023-05-29T04:05:35;99404.84;;;17.32;85.79
32875;BME280;40468;42.128;24.750;2023-05-29T04:07:07;99409.03;;;17.34;85.86
32875;BME280;40468;42.128;24.750;2023-05-29T04:08:38;99404.47;;;17.36;85.47
32875;BME280;40468;42.128;24.750;2023-05-29T04:10:10;99402.53;;;17.38;85.49
32875;BME280;40468;42.128;24.750;2023-05-29T04:11:42;99409.50;;;17.39;85.34
32875;BME280;40468;42.128;24.750;2023-05-29T04:13:15;99408.53;;;17.40;85.13
32875;BME280;40468;42.128;24.750;2023-05-29T04:14:46;99405.75;;;17.42;84.61
32875;BME280;40468;42.128;24.750;2023-05-29T04:16:20;99405.41;;;17.46;84.85
32875;BME280;40468;42.128;24.750;2023-05-29T04:17:51;99414.28;;;17.45;84.81
32875;BME280;40468;42.128;24.750;2023-05-29T04:19:23;99412.59;;;17.44;84.60
32875;BME280;40468;42.128;24.750;2023-05-29T04:20:55;99413.66;;;17.42;84.61
32875;BME280;40468;42.128;24.750;2023-05-29T04:22:27;99409.38;;;17.41;84.62
32875;BME280;40468;42.128;24.750;2023-05-29T04:23:59;99416.53;;;17.39;84.46
32875;BME280;40468;42.128;24.750;2023-05-29T04:25:31;99422.53;;;17.41;84.46
32875;BME280;40468;42.128;24.750;2023-05-29T04:27:04;99413.31;;;17.35;84.35
32875;BME280;40468;42.128;24.750;2023-05-29T04:28:36;99414.13;;;17.47;84.44
32875;BME280;40468;42.128;24.750;2023-05-29T04:30:09;99425.25;;;17.50;84.22
32875;BME280;40468;42.128;24.750;2023-05-29T04:31:43;99423.09;;;17.56;83.79
32875;BME280;40468;42.128;24.750;2023-05-29T04:33:15;99424.75;;;17.57;83.84
32875;BME280;40468;42.128;24.750;2023-05-29T04:34:46;99426.22;;;17.61;83.54
32875;BME280;40468;42.128;24.750;2023-05-29T04:36:18;99430.50;;;17.62;83.51
32875;BME280;40468;42.128;24.750;2023-05-29T04:37:49;99430.16;;;17.66;83.00
32875;BME280;40468;42.128;24.750;2023-05-29T04:39:23;99433.22;;;17.71;83.32
32875;BME280;40468;42.128;24.750;2023-05-29T04:40:56;99438.13;;;17.76;83.17
32875;BME280;40468;42.128;24.750;2023-05-29T04:42:28;99441.03;;;17.62;83.39
32875;BME280;40468;42.128;24.750;2023-05-29T04:44:04;99435.16;;;17.69;83.52
32875;BME280;40468;42.128;24.750;2023-05-29T04:45:36;99442.22;;;17.80;82.91
32875;BME280;40468;42.128;24.750;2023-05-29T04:47:09;99442.94;;;17.82;82.57
32875;BME280;40468;42.128;24.750;2023-05-29T04:48:43;99442.09;;;17.82;82.30
32875;BME280;40468;42.128;24.750;2023-05-29T04:50:16;99441.28;;;17.81;82.20
32875;BME280;40468;42.128;24.750;2023-05-29T04:51:48;99436.94;;;17.80;82.15
32875;BME280;40468;42.128;24.750;2023-05-29T04:53:22;99445.81;;;17.79;82.17
32875;BME280;40468;42.128;24.750;2023-05-29T04:54:55;99446.53;;;17.81;82.05
32875;BME280;40468;42.128;24.750;2023-05-29T04:56:28;99443.91;;;17.81;82.04
32875;BME280;40468;42.128;24.750;2023-05-29T04:58:00;99440.31;;;17.82;81.90
32875;BME280;40468;42.128;24.750;2023-05-29T04:59:31;99450.47;;;17.87;81.99
32875;BME280;40468;42.128;24.750;2023-05-29T05:01:03;99452.00;;;17.89;81.47
32875;BME280;40468;42.128;24.750;2023-05-29T05:02:37;99458.97;;;17.90;81.64
32875;BME280;40468;42.128;24.750;2023-05-29T05:04:08;99456.44;;;17.89;81.50
32875;BME280;40468;42.128;24.750;2023-05-29T05:05:40;99456.44;;;17.89;81.55
32875;BME280;40468;42.128;24.750;2023-05-29T05:07:13;99450.59;;;17.85;81.28
32875;BME280;40468;42.128;24.750;2023-05-29T05:08:46;99458.13;;;17.90;81.34
32875;BME280;40468;42.128;24.750;2023-05-29T05:10:17;99459.69;;;17.92;81.23
32875;BME280;40468;42.128;24.750;2023-05-29T05:11:49;99456.09;;;17.93;81.14
32875;BME280;40468;42.128;24.750;2023-05-29T05:13:21;99453.19;;;17.96;80.96
32875;BME280;40468;42.128;24.750;2023-05-29T05:14:53;99458.47;;;17.96;80.90
32875;BME280;40468;42.128;24.750;2023-05-29T05:16:25;99456.66;;;17.97;80.60
32875;BME280;40468;42.128;24.750;2023-05-29T05:17:58;99457.38;;;17.99;80.04
32875;BME280;40468;42.128;24.750;2023-05-29T05:19:30;99455.38;;;17.80;80.65
32875;BME280;40468;42.128;24.750;2023-05-29T05:21:02;99461.13;;;17.85;80.73
32875;BME280;40468;42.128;24.750;2023-05-29T05:22:34;99456.44;;;17.89;80.20
32875;BME280;40468;42.128;24.750;2023-05-29T05:24:06;99462.31;;;17.92;79.84
32875;BME280;40468;42.128;24.750;2023-05-29T05:26:02;99452.72;;;17.91;79.23
32875;BME280;40468;42.128;24.750;2023-05-29T05:27:37;99462.31;;;17.92;79.78
32875;BME280;40468;42.128;24.750;2023-05-29T05:29:09;99463.97;;;17.93;79.41
32875;BME280;40468;42.128;24.750;2023-05-29T05:30:41;99463.72;;;17.96;79.24
32875;BME280;40468;42.128;24.750;2023-05-29T05:32:13;99476.41;;;18.03;79.22
32875;BME280;40468;42.128;24.750;2023-05-29T05:33:46;99470.16;;;18.04;78.92
32875;BME280;40468;42.128;24.750;2023-05-29T05:35:18;99470.06;;;18.05;79.05
32875;BME280;40468;42.128;24.750;2023-05-29T05:36:50;99466.59;;;18.05;79.04
32875;BME280;40468;42.128;24.750;2023-05-29T05:38:22;99463.47;;;18.00;78.77
32875;BME280;40468;42.128;24.750;2023-05-29T05:39:54;99474.59;;;18.03;78.94
32875;BME280;40468;42.128;24.750;2023-05-29T05:41:27;99479.03;;;18.03;78.83
32875;BME280;40468;42.128;24.750;2023-05-29T05:42:59;99484.31;;;18.03;79.11
32875;BME280;40468;42.128;24.750;2023-05-29T05:44:31;99478.31;;;18.01;78.94
32875;BME280;40468;42.128;24.750;2023-05-29T05:46:03;99483.16;;;17.95;78.98
32875;BME280;40468;42.128;24.750;2023-05-29T05:47:35;99486.22;;;18.01;78.91
32875;BME280;40468;42.128;24.750;2023-05-29T05:49:08;99485.03;;;18.05;78.77
32875;BME280;40468;42.128;24.750;2023-05-29T05:50:40;99490.16;;;18.06;78.81
32875;BME280;40468;42.128;24.750;2023-05-29T05:52:12;99489.81;;;18.11;78.79
32875;BME280;40468;42.128;24.750;2023-05-29T05:53:44;99491.47;;;18.12;78.56
32875;BME280;40468;42.128;24.750;2023-05-29T05:55:16;99487.16;;;18.11;78.79
32875;BME280;40468;42.128;24.750;2023-05-29T05:56:48;99481.91;;;18.11;78.79
32875;BME280;40468;42.128;24.750;2023-05-29T05:58:20;99484.28;;;18.14;78.79
32875;BME280;40468;42.128;24.750;2023-05-29T05:59:51;99483.63;;;18.22;78.52
32875;BME280;40468;42.128;24.750;2023-05-29T06:01:23;99494.66;;;18.27;78.35
32875;BME280;40468;42.128;24.750;2023-05-29T06:02:55;99488.16;;;18.31;78.37
32875;BME280;40468;42.128;24.750;2023-05-29T06:04:29;99464.09;;;18.24;78.15
32875;BME280;40468;42.128;24.750;2023-05-29T06:06:02;99481.28;;;18.39;78.44
32875;BME280;40468;42.128;24.750;2023-05-29T06:07:33;99473.72;;;18.46;78.29
32875;BME280;40468;42.128;24.750;2023-05-29T06:09:06;99482.22;;;18.50;78.00
32875;BME280;40468;42.128;24.750;2023-05-29T06:10:38;99476.69;;;18.53;77.64
32875;BME280;40468;42.128;24.750;2023-05-29T06:12:10;99480.88;;;18.55;77.66
32875;BME280;40468;42.128;24.750;2023-05-29T06:13:42;99477.00;;;18.59;77.54
32875;BME280;40468;42.128;24.750;2023-05-29T06:15:14;99482.59;;;18.66;77.55
32875;BME280;40468;42.128;24.750;2023-05-29T06:16:47;99476.94;;;18.71;77.22
32875;BME280;40468;42.128;24.750;2023-05-29T06:18:21;99481.72;;;18.77;77.04
32875;BME280;40468;42.128;24.750;2023-05-29T06:19:55;99476.91;;;18.82;76.90
32875;BME280;40468;42.128;24.750;2023-05-29T06:21:26;99482.31;;;18.69;77.21
32875;BME280;40468;42.128;24.750;2023-05-29T06:22:59;99479.66;;;18.80;76.93
32875;BME280;40468;42.128;24.750;2023-05-29T06:24:31;99480.56;;;18.91;76.55
32875;BME280;40468;42.128;24.750;2023-05-29T06:26:03;99473.69;;;18.99;76.04
32875;BME280;40468;42.128;24.750;2023-05-29T06:27:35;99481.63;;;19.09;76.05
32875;BME280;40468;42.128;24.750;2023-05-29T06:29:07;99480.38;;;19.13;75.30
32875;BME280;40468;42.128;24.750;2023-05-29T06:30:40;99489.59;;;19.19;74.97
32875;BME280;40468;42.128;24.750;2023-05-29T06:32:12;99477.66;;;19.24;74.91
32875;BME280;40468;42.128;24.750;2023-05-29T06:33:44;99482.84;;;19.26;74.90
32875;BME280;40468;42.128;24.750;2023-05-29T06:35:17;99480.75;;;19.29;74.58
32875;BME280;40468;42.128;24.750;2023-05-29T06:36:50;99487.00;;;19.28;74.37
32875;BME280;40468;42.128;24.750;2023-05-29T06:38:22;99481.72;;;19.28;74.26
32875;BME280;40468;42.128;24.750;2023-05-29T06:39:54;99481.59;;;19.30;74.75
32875;BME280;40468;42.128;24.750;2023-05-29T06:41:26;99481.19;;;19.35;74.62
32875;BME280;40468;42.128;24.750;2023-05-29T06:42:58;99488.59;;;19.41;74.74
32875;BME280;40468;42.128;24.750;2023-05-29T06:44:31;99494.28;;;19.46;74.65
32875;BME280;40468;42.128;24.750;2023-05-29T06:46:03;99493.91;;;19.50;74.42
32875;BME280;40468;42.128;24.750;2023-05-29T06:47:35;99494.16;;;19.47;74.29
32875;BME280;40468;42.128;24.750;2023-05-29T06:49:07;99487.78;;;19.50;74.19
32875;BME280;40468;42.128;24.750;2023-05-29T06:50:40;99499.63;;;19.55;74.07
32875;BME280;40468;42.128;24.750;2023-05-29T06:52:12;99486.06;;;19.39;74.41
32875;BME280;40468;42.128;24.750;2023-05-29T06:53:44;99497.53;;;19.49;74.04
32875;BME280;40468;42.128;24.750;2023-05-29T06:55:16;99492.38;;;19.58;73.53
32875;BME280;40468;42.128;24.750;2023-05-29T06:56:48;99491.00;;;19.63;73.46
32875;BME280;40468;42.128;24.750;2023-05-29T06:58:21;99495.94;;;19.68;73.38
32875;BME280;40468;42.128;24.750;2023-05-29T06:59:53;99493.59;;;19.74;73.16
32875;BME280;40468;42.128;24.750;2023-05-29T07:01:26;99496.78;;;19.78;72.84
32875;BME280;40468;42.128;24.750;2023-05-29T07:02:58;99492.75;;;19.84;72.70
32875;BME280;40468;42.128;24.750;2023-05-29T07:04:29;99495.41;;;19.93;72.55
32875;BME280;40468;42.128;24.750;2023-05-29T07:06:03;99486.69;;;20.03;72.25
32875;BME280;40468;42.128;24.750;2023-05-29T07:07:35;99487.91;;;20.08;72.27
32875;BME280;40468;42.128;24.750;2023-05-29T07:09:07;99491.69;;;20.15;71.86
32875;BME280;40468;42.128;24.750;2023-05-29T07:10:39;99489.50;;;20.20;71.29
32875;BME280;40468;42.128;24.750;2023-05-29T07:12:11;99489.88;;;20.26;71.02
32875;BME280;40468;42.128;24.750;2023-05-29T07:13:43;99487.38;;;20.34;70.59
32875;BME280;40468;42.128;24.750;2023-05-29T07:15:16;99492.00;;;20.41;70.83
32875;BME280;40468;42.128;24.750;2023-05-29T07:16:48;99485.31;;;20.47;70.40
32875;BME280;40468;42.128;24.750;2023-05-29T07:18:20;99482.69;;;20.57;69.84
32875;BME280;40468;42.128;24.750;2023-05-29T07:19:55;99487.13;;;20.66;69.42
32875;BME280;40468;42.128;24.750;2023-05-29T07:21:28;99490.03;;;20.73;69.48
32875;BME280;40468;42.128;24.750;2023-05-29T07:23:01;99491.56;;;20.75;68.78
32875;BME280;40468;42.128;24.750;2023-05-29T07:24:33;99491.97;;;20.80;69.14
32875;BME280;40468;42.128;24.750;2023-05-29T07:26:05;99497.97;;;20.82;69.12
32875;BME280;40468;42.128;24.750;2023-05-29T07:27:37;99504.94;;;20.83;68.40
32875;BME280;40468;42.128;24.750;2023-05-29T07:29:09;99497.97;;;20.82;68.36
32875;BME280;40468;42.128;24.750;2023-05-29T07:30:42;99503.53;;;20.79;68.06
32875;BME280;40468;42.128;24.750;2023-05-29T07:32:14;99495.59;;;20.79;67.67
32875;BME280;40468;42.128;24.750;2023-05-29T07:33:46;99489.19;;;20.82;67.84
32875;BME280;40468;42.128;24.750;2023-05-29T07:35:19;99494.19;;;20.85;67.34
32875;BME280;40468;42.128;24.750;2023-05-29T07:37:01;99488.59;;;20.88;67.14
32875;BME280;40468;42.128;24.750;2023-05-29T07:38:34;99495.03;;;20.85;67.08
32875;BME280;40468;42.128;24.750;2023-05-29T07:40:06;99494.31;;;20.93;66.91
32875;BME280;40468;42.128;24.750;2023-05-29T07:41:39;99501.59;;;20.81;67.64
32875;BME280;40468;42.128;24.750;2023-05-29T07:43:11;99493.34;;;20.94;67.73
32875;BME280;40468;42.128;24.750;2023-05-29T07:44:44;99500.16;;;21.06;67.15
32875;BME280;40468;42.128;24.750;2023-05-29T07:46:16;99497.47;;;21.16;67.00
32875;BME280;40468;42.128;24.750;2023-05-29T07:47:49;99495.47;;;21.28;66.36
32875;BME280;40468;42.128;24.750;2023-05-29T07:49:21;99503.28;;;21.39;66.26
32875;BME280;40468;42.128;24.750;2023-05-29T07:50:53;99498.34;;;21.44;65.52
32875;BME280;40468;42.128;24.750;2023-05-29T07:52:27;99499.44;;;21.51;65.19
32875;BME280;40468;42.128;24.750;2023-05-29T07:53:59;99500.81;;;21.55;65.29
32875;BME280;40468;42.128;24.750;2023-05-29T07:55:31;99498.03;;;21.57;64.61
32875;BME280;40468;42.128;24.750;2023-05-29T07:57:03;99500.81;;;21.55;64.19
32875;BME280;40468;42.128;24.750;2023-05-29T07:58:39;99503.63;;;21.54;63.85
32875;BME280;40468;42.128;24.750;2023-05-29T08:00:12;99506.28;;;21.54;64.06
32875;BME280;40468;42.128;24.750;2023-05-29T08:01:45;99503.47;;;21.55;63.32
32875;BME280;40468;42.128;24.750;2023-05-29T08:03:17;99500.97;;;21.54;62.90
32875;BME280;40468;42.128;24.750;2023-05-29T08:04:50;99504.16;;;21.57;62.79